Rigby, ID (83442)

10:37 AM MDT on July 29, 2016 (GMT -0600)
Labelle | | Change Station

Elev 4865 ft 43.70 °N, 111.89 °W | Updated 3 minutes ago

Clear
Clear
79.7 °F
Feels Like 79 °F
N
3.7
Wind Variable Wind from ESE

Today
High -- | Low -- °F
--% Chance of Precip.
Yesterday
High -- | Low -- °F
Precip. -- in
Pressure 29.95 in
Visibility 10.0 miles
Clouds Clear
Heat Index 79 °F
Dew Point 45 °F
Humidity 29%
Rainfall 0.00 in
Snow Depth Not available.
6:13 AM 8:53 PM
Waning Crescent, 21% visible
METAR KRXE 291553Z AUTO VRB03KT 10SM CLR 20/08 A3012 RMK AO2 SLP142 T02000078
Pressure 29.95 in
Visibility 10.0 miles
Clouds Clear
Heat Index 79 °F
Dew Point 45 °F
Humidity 29%
Rainfall 0.00 in
Snow Depth Not available.
6:13 AM 8:53 PM
Waning Crescent, 21% visible
METAR KRXE 291553Z AUTO VRB03KT 10SM CLR 20/08 A3012 RMK AO2 SLP142 T02000078

10-Day Weather Forecast

Almanac

Astronomy

Jul. 29, 2016 Rise Set
Actual Time
Civil Twilight
Nautical Twilight
Astronomical Twilight
Moon
Length of Visible Light
Length of Day
Tomorrow will be .
, % of the Moon is Illuminated

Today's Extremes

State Highs State Lows

Community

WunderPhotos

Upload Photos

1,928,367 photos uploaded!

WunderBlog® & News

Nearby

Air Quality

  Air Quality AQ Index Pollutant
Not available.

Snow Depth

Station Depth Elevation

Earthquake Activity

City Distance Mag. Time & Date
Minimum magnitude displayed is 2.5.

Coastal Water Temperatures

Place Temperature

Stations

Nearby Weather Stations

Station Location Temp. Windchill Dew Point Humidity Wind Precip. Elev Updated Type
                   

Watches & Warnings

There are currently no watches in effect.